createdAt,value
2022-11-12T00:00:54.762Z,7.20
2022-11-12T00:03:22.138Z,7.20
2022-11-12T00:05:50.824Z,7.30
2022-11-12T00:08:18.004Z,7.30
2022-11-12T00:10:45.607Z,7.30
2022-11-12T00:13:12.715Z,7.40
2022-11-12T00:15:39.669Z,7.40
2022-11-12T00:18:07.740Z,7.40
2022-11-12T00:20:35.017Z,7.40
2022-11-12T00:23:01.822Z,7.40
2022-11-12T00:25:28.783Z,7.40
2022-11-12T00:28:02.303Z,7.40
2022-11-12T00:30:29.286Z,7.30
2022-11-12T00:32:56.111Z,7.40
2022-11-12T00:35:22.928Z,7.40
2022-11-12T00:37:55.186Z,7.40
2022-11-12T00:40:22.038Z,7.50
2022-11-12T00:42:51.188Z,7.50
2022-11-12T00:45:19.066Z,7.50
2022-11-12T00:47:46.103Z,7.50
2022-11-12T00:50:13.085Z,7.50
2022-11-12T00:52:39.895Z,7.50
2022-11-12T00:55:06.957Z,7.40
2022-11-12T00:57:33.768Z,7.40
2022-11-12T01:00:00.589Z,7.40
2022-11-12T01:02:27.409Z,7.50
2022-11-12T01:04:54.258Z,7.50
2022-11-12T01:07:21.077Z,7.50
2022-11-12T01:09:47.938Z,7.60
2022-11-12T01:12:14.763Z,7.60
2022-11-12T01:14:41.677Z,7.60
2022-11-12T01:17:08.486Z,7.60
2022-11-12T01:19:35.368Z,7.60
2022-11-12T01:22:02.239Z,7.60
2022-11-12T01:24:29.122Z,7.60
2022-11-12T01:26:55.973Z,7.60
2022-11-12T01:29:22.944Z,7.60
2022-11-12T01:31:50.679Z,7.70
2022-11-12T01:34:17.499Z,7.70
2022-11-12T01:36:44.365Z,7.70
2022-11-12T01:39:11.222Z,7.60
2022-11-12T01:41:39.638Z,7.60
2022-11-12T01:44:12.981Z,7.60
2022-11-12T01:47:15.083Z,7.50
2022-11-12T01:49:57.430Z,7.60
2022-11-12T01:52:52.227Z,7.60
2022-11-12T01:55:29.780Z,7.70
2022-11-12T01:58:07.991Z,7.70
2022-11-12T02:00:34.941Z,7.70
2022-11-12T02:03:05.977Z,7.60
2022-11-12T02:05:33.793Z,7.60
2022-11-12T02:08:01.365Z,7.60
2022-11-12T02:10:28.401Z,7.50
2022-11-12T02:13:13.681Z,7.50
2022-11-12T02:15:41.682Z,7.50
2022-11-12T02:18:09.079Z,7.50
2022-11-12T02:20:37.978Z,7.40
2022-11-12T02:23:07.390Z,7.40
2022-11-12T02:25:35.275Z,7.50
2022-11-12T02:28:06.308Z,7.50
2022-11-12T02:30:38.114Z,7.50
2022-11-12T02:33:05.176Z,7.50
2022-11-12T02:35:32.054Z,7.50
2022-11-12T02:37:59.460Z,7.50
2022-11-12T02:40:26.513Z,7.40
2022-11-12T02:42:53.337Z,7.40
2022-11-12T02:45:21.097Z,7.40
2022-11-12T02:47:48.221Z,7.40
2022-11-12T02:50:15.721Z,7.40
2022-11-12T02:52:42.747Z,7.40
2022-11-12T02:55:11.795Z,7.40
2022-11-12T02:57:39.346Z,7.40
2022-11-12T03:00:09.396Z,7.40
2022-11-12T03:02:42.657Z,7.40
2022-11-12T03:05:11.306Z,7.40
2022-11-12T03:07:39.034Z,7.40
2022-11-12T03:10:08.023Z,7.40
2022-11-12T03:12:34.823Z,7.40
2022-11-12T03:15:01.664Z,7.40
2022-11-12T03:17:28.493Z,7.40
2022-11-12T03:19:55.333Z,7.50
2022-11-12T03:22:22.188Z,7.40
2022-11-12T03:24:48.976Z,7.40
2022-11-12T03:27:15.880Z,7.40
2022-11-12T03:29:42.697Z,7.40
2022-11-12T03:32:09.565Z,7.40
2022-11-12T03:34:36.372Z,7.40
2022-11-12T03:37:03.793Z,7.50
2022-11-12T03:39:30.607Z,7.50
2022-11-12T03:41:57.387Z,7.50
2022-11-12T03:44:24.193Z,7.50
2022-11-12T03:46:50.979Z,7.50
2022-11-12T03:49:17.776Z,7.50
2022-11-12T03:51:44.631Z,7.50
2022-11-12T03:54:11.472Z,7.40
2022-11-12T03:56:38.423Z,7.50
2022-11-12T03:59:05.538Z,7.40
2022-11-12T04:01:32.905Z,7.40
2022-11-12T04:03:59.791Z,7.40
2022-11-12T04:06:45.136Z,7.40
2022-11-12T04:09:12.103Z,7.30
2022-11-12T04:11:38.918Z,7.40
2022-11-12T04:14:05.947Z,7.30
2022-11-12T04:16:51.619Z,7.20
2022-11-12T04:19:37.253Z,7.20
2022-11-12T04:22:09.518Z,7.20
2022-11-12T04:24:57.598Z,7.20
2022-11-12T04:27:30.420Z,7.20
2022-11-12T04:30:15.990Z,7.10
2022-11-12T04:32:48.443Z,7.10
2022-11-12T04:35:15.285Z,7.00
2022-11-12T04:37:45.040Z,7.00
2022-11-12T04:40:34.414Z,6.90
2022-11-12T04:43:21.126Z,6.90
2022-11-12T04:45:53.057Z,6.90
2022-11-12T04:48:20.748Z,6.80
2022-11-12T04:50:55.672Z,6.80
2022-11-12T04:53:22.959Z,6.70
2022-11-12T04:55:51.082Z,6.60
2022-11-12T04:58:18.098Z,6.60
2022-11-12T05:00:45.004Z,6.60
2022-11-12T05:03:11.836Z,6.70
2022-11-12T05:05:38.710Z,6.60
2022-11-12T05:08:05.534Z,6.60
2022-11-12T05:10:32.871Z,6.60
2022-11-12T05:12:59.869Z,6.50
2022-11-12T05:15:26.685Z,6.50
2022-11-12T05:17:53.563Z,6.50
2022-11-12T05:20:20.415Z,6.50
2022-11-12T05:23:04.587Z,6.50
2022-11-12T05:25:32.902Z,6.50
2022-11-12T05:27:59.726Z,6.50
2022-11-12T05:30:26.597Z,6.50
2022-11-12T05:32:53.471Z,6.50
2022-11-12T05:35:20.250Z,6.50
2022-11-12T05:37:47.077Z,6.50
2022-11-12T05:40:14.059Z,6.60
2022-11-12T05:42:40.884Z,6.60
2022-11-12T05:45:08.459Z,6.60
2022-11-12T05:47:35.296Z,6.60
2022-11-12T05:50:02.166Z,6.60
2022-11-12T05:52:28.979Z,6.70
2022-11-12T05:54:55.787Z,6.70
2022-11-12T05:57:22.628Z,6.70
2022-11-12T05:59:49.432Z,6.70
2022-11-12T06:02:16.383Z,6.70
2022-11-12T06:04:43.289Z,6.80
2022-11-12T06:07:10.167Z,6.90
2022-11-12T06:09:37.043Z,6.90
2022-11-12T06:12:06.849Z,6.90
2022-11-12T06:14:33.657Z,7.00
2022-11-12T06:17:00.467Z,7.00
2022-11-12T06:19:27.262Z,7.10
2022-11-12T06:21:54.068Z,7.10
2022-11-12T06:24:21.026Z,7.20
2022-11-12T06:26:47.851Z,7.30
2022-11-12T06:29:14.701Z,7.30
2022-11-12T06:31:41.563Z,7.30
2022-11-12T06:34:08.479Z,7.30
2022-11-12T06:36:36.094Z,7.40
2022-11-12T06:39:03.059Z,7.40
2022-11-12T06:41:29.899Z,7.50
2022-11-12T06:43:56.713Z,7.50
2022-11-12T06:46:23.508Z,7.60
2022-11-12T06:48:50.320Z,7.60
2022-11-12T06:51:19.498Z,7.70
2022-11-12T06:53:47.245Z,7.70
2022-11-12T06:56:14.774Z,7.80
2022-11-12T06:58:42.233Z,7.90
2022-11-12T07:01:12.902Z,8.00
2022-11-12T07:03:41.963Z,8.10
2022-11-12T07:06:11.805Z,8.20
2022-11-12T07:08:40.727Z,8.30
2022-11-12T07:11:08.540Z,8.40
2022-11-12T07:13:36.176Z,8.50
2022-11-12T07:16:06.135Z,8.60
2022-11-12T07:18:34.842Z,8.70
2022-11-12T07:21:05.656Z,8.80
2022-11-12T07:23:34.783Z,8.90
2022-11-12T07:26:06.422Z,9.00
2022-11-12T07:28:33.531Z,9.10
2022-11-12T07:31:11.002Z,9.20
2022-11-12T07:33:38.441Z,9.20
2022-11-12T07:36:07.020Z,9.40
2022-11-12T07:38:38.602Z,9.50
2022-11-12T07:41:11.104Z,9.60
2022-11-12T07:43:38.979Z,9.70
2022-11-12T07:46:20.924Z,9.70
2022-11-12T07:48:48.550Z,9.80
2022-11-12T07:51:16.675Z,9.80
2022-11-12T07:53:45.056Z,9.80
2022-11-12T07:56:15.900Z,9.80
2022-11-12T07:58:42.780Z,9.80
2022-11-12T08:01:18.906Z,9.80
2022-11-12T08:03:45.774Z,9.90
2022-11-12T08:06:12.581Z,10.00
2022-11-12T08:08:39.515Z,10.10
2022-11-12T08:11:06.342Z,10.10
2022-11-12T08:13:33.172Z,10.30
2022-11-12T08:16:00.540Z,10.50
2022-11-12T08:18:28.402Z,10.70
2022-11-12T08:21:06.826Z,10.90
2022-11-12T08:23:33.907Z,11.00
2022-11-12T08:26:02.157Z,11.10
2022-11-12T08:28:30.419Z,11.20
2022-11-12T08:30:58.053Z,11.40
2022-11-12T08:33:24.900Z,11.40
2022-11-12T08:35:51.694Z,11.40
2022-11-12T08:38:18.580Z,11.20
2022-11-12T08:40:45.378Z,11.10
2022-11-12T08:43:12.242Z,10.90
2022-11-12T08:45:40.595Z,10.80
2022-11-12T08:48:14.532Z,10.70
2022-11-12T08:50:41.862Z,10.70
2022-11-12T08:53:11.356Z,10.80
2022-11-12T08:55:38.929Z,10.90
2022-11-12T08:58:06.181Z,11.00
2022-11-12T09:00:37.128Z,11.00
2022-11-12T09:03:05.638Z,11.10
2022-11-12T09:05:34.080Z,11.20
2022-11-12T09:08:07.340Z,11.30
2022-11-12T09:10:34.733Z,11.40
2022-11-12T09:13:01.818Z,11.50
2022-11-12T09:15:38.369Z,11.60
2022-11-12T09:18:10.858Z,11.70
2022-11-12T09:20:37.666Z,11.80
2022-11-12T09:23:15.614Z,11.80
2022-11-12T09:25:42.884Z,11.80
2022-11-12T09:28:14.736Z,11.90
2022-11-12T09:30:46.855Z,11.90
2022-11-12T09:33:19.783Z,12.00
2022-11-12T09:35:48.622Z,12.20
2022-11-12T09:38:16.166Z,12.20
2022-11-12T09:40:51.925Z,12.40
2022-11-12T09:43:31.681Z,12.80
2022-11-12T09:46:27.615Z,13.20
2022-11-12T09:49:23.151Z,13.40
2022-11-12T09:51:55.419Z,13.50
2022-11-12T09:54:31.122Z,13.60
2022-11-12T09:56:58.224Z,13.80
2022-11-12T09:59:30.367Z,13.90
2022-11-12T10:02:32.937Z,14.10
2022-11-12T10:05:24.333Z,14.30
2022-11-12T10:08:17.947Z,14.70
2022-11-12T10:10:48.837Z,15.00
2022-11-12T10:13:42.246Z,15.30
2022-11-12T10:16:36.946Z,15.50
2022-11-12T10:19:18.625Z,15.40
2022-11-12T10:22:14.403Z,15.30
2022-11-12T10:24:43.023Z,15.30
2022-11-12T10:27:16.763Z,15.20
2022-11-12T10:29:53.640Z,15.00
2022-11-12T10:32:20.487Z,15.00
2022-11-12T10:34:47.281Z,15.00
2022-11-12T10:37:27.010Z,14.90
2022-11-12T10:39:53.939Z,14.70
2022-11-12T10:42:22.883Z,14.50
2022-11-12T10:44:50.046Z,14.50
2022-11-12T10:47:38.751Z,14.60
2022-11-12T10:50:12.722Z,14.60
2022-11-12T10:52:39.837Z,14.60
2022-11-12T10:55:19.787Z,14.50
2022-11-12T10:57:46.600Z,14.50
2022-11-12T11:00:13.375Z,14.60
2022-11-12T11:02:54.059Z,14.60
2022-11-12T11:05:58.429Z,14.60
2022-11-12T11:08:35.986Z,14.40
2022-11-12T11:11:30.855Z,14.40
2022-11-12T11:14:29.176Z,14.40
2022-11-12T11:17:04.557Z,14.50
2022-11-12T11:19:39.039Z,14.60
2022-11-12T11:22:43.957Z,14.60
2022-11-12T11:25:29.574Z,14.50
2022-11-12T11:28:21.332Z,14.50
2022-11-12T11:30:59.689Z,14.60
2022-11-12T11:33:34.602Z,14.50
2022-11-12T11:36:04.460Z,14.40
2022-11-12T11:38:57.492Z,14.50
2022-11-12T11:41:39.387Z,14.50
2022-11-12T11:44:29.238Z,14.50
2022-11-12T11:47:17.147Z,14.50
2022-11-12T11:49:53.123Z,14.50
2022-11-12T11:52:32.789Z,14.50
2022-11-12T11:55:26.540Z,14.50
2022-11-12T11:58:10.310Z,14.50
2022-11-12T12:00:46.192Z,14.50
2022-11-12T12:03:20.507Z,14.60
2022-11-12T12:05:55.545Z,14.70
2022-11-12T12:08:34.266Z,14.60
2022-11-12T12:11:11.818Z,14.70
2022-11-12T12:13:44.430Z,14.80
2022-11-12T12:16:17.281Z,14.80
2022-11-12T12:19:27.511Z,14.70
2022-11-12T12:21:57.762Z,14.60
2022-11-12T12:24:29.742Z,14.50
2022-11-12T12:27:03.198Z,14.50
2022-11-12T12:29:45.434Z,14.40
2022-11-12T12:32:24.582Z,14.40
2022-11-12T12:35:20.081Z,14.50
2022-11-12T12:37:52.643Z,14.50
2022-11-12T12:40:23.590Z,14.50
2022-11-12T12:43:01.930Z,14.50
2022-11-12T12:45:41.955Z,14.50
2022-11-12T12:48:27.484Z,14.50
2022-11-12T12:50:55.538Z,14.50
2022-11-12T12:53:22.331Z,14.50
2022-11-12T12:55:52.884Z,14.40
2022-11-12T12:58:33.342Z,14.40
2022-11-12T13:01:10.504Z,14.50
2022-11-12T13:03:46.161Z,14.50
2022-11-12T13:06:24.014Z,14.50
2022-11-12T13:08:58.468Z,14.50
2022-11-12T13:12:01.770Z,14.50
2022-11-12T13:14:37.455Z,14.50
2022-11-12T13:17:04.231Z,14.60
2022-11-12T13:19:38.147Z,14.60
2022-11-12T13:22:20.046Z,14.50
2022-11-12T13:25:02.332Z,14.40
2022-11-12T13:27:44.538Z,14.30
2022-11-12T13:30:14.383Z,14.30
2022-11-12T13:32:48.493Z,14.30
2022-11-12T13:35:18.513Z,14.40
2022-11-12T13:38:01.166Z,14.40
2022-11-12T13:40:30.820Z,14.20
2022-11-12T13:43:06.204Z,14.20
2022-11-12T13:45:40.770Z,14.20
2022-11-12T13:48:21.929Z,14.10
2022-11-12T13:50:55.715Z,14.10
2022-11-12T13:53:28.101Z,14.00
2022-11-12T13:55:55.894Z,14.00
2022-11-12T13:58:34.182Z,13.90
2022-11-12T14:01:02.990Z,13.90
2022-11-12T14:03:40.377Z,13.90
2022-11-12T14:06:45.100Z,13.90
2022-11-12T14:09:27.805Z,13.90
2022-11-12T14:12:11.737Z,13.80
2022-11-12T14:14:57.460Z,13.80
2022-11-12T14:17:54.311Z,13.80
2022-11-12T14:20:38.385Z,13.70
2022-11-12T14:23:11.189Z,13.70
2022-11-12T14:25:54.077Z,13.60
2022-11-12T14:28:30.885Z,13.60
2022-11-12T14:30:59.691Z,13.50
2022-11-12T14:33:28.374Z,13.40
2022-11-12T14:36:05.405Z,13.40
2022-11-12T14:38:39.724Z,13.40
2022-11-12T14:41:30.412Z,13.40
2022-11-12T14:44:12.170Z,13.30
2022-11-12T14:46:47.974Z,13.20
2022-11-12T14:49:23.654Z,13.20
2022-11-12T14:51:54.896Z,13.10
2022-11-12T14:54:34.076Z,13.10
2022-11-12T14:57:03.830Z,13.00
2022-11-12T14:59:32.144Z,13.00
2022-11-12T15:02:31.425Z,12.90
2022-11-12T15:05:23.714Z,12.90
2022-11-12T15:07:54.550Z,12.90
2022-11-12T15:10:38.362Z,12.80
2022-11-12T15:13:07.929Z,12.80
2022-11-12T15:15:37.711Z,12.70
2022-11-12T15:18:07.099Z,12.70
2022-11-12T15:20:34.267Z,12.60
2022-11-12T15:23:01.162Z,12.60
2022-11-12T15:25:31.954Z,12.60
2022-11-12T15:28:34.336Z,12.50
2022-11-12T15:31:06.606Z,12.50
2022-11-12T15:33:33.476Z,12.50
2022-11-12T15:36:01.901Z,12.50
2022-11-12T15:38:35.983Z,12.50
2022-11-12T15:41:03.702Z,12.50
2022-11-12T15:43:35.613Z,12.40
2022-11-12T15:46:02.731Z,12.40
2022-11-12T15:48:29.622Z,12.40
2022-11-12T15:50:56.433Z,12.40
2022-11-12T15:53:23.240Z,12.40
2022-11-12T15:55:52.146Z,12.30
2022-11-12T15:58:25.795Z,12.20
2022-11-12T16:00:52.769Z,12.30
2022-11-12T16:03:22.113Z,12.20
2022-11-12T16:05:48.932Z,12.20
2022-11-12T16:08:16.060Z,12.20
2022-11-12T16:10:45.369Z,12.20
2022-11-12T16:13:18.332Z,12.10
2022-11-12T16:15:45.335Z,12.10
2022-11-12T16:18:12.758Z,12.10
2022-11-12T16:20:39.800Z,12.20
2022-11-12T16:23:06.627Z,12.20
2022-11-12T16:25:36.982Z,12.20
2022-11-12T16:28:05.260Z,12.20
2022-11-12T16:30:33.928Z,12.20
2022-11-12T16:33:01.773Z,12.20
2022-11-12T16:35:32.645Z,12.20
2022-11-12T16:37:59.592Z,12.20
2022-11-12T16:40:29.208Z,12.10
2022-11-12T16:42:56.450Z,12.10
2022-11-12T16:45:26.225Z,12.00
2022-11-12T16:47:55.562Z,12.00
2022-11-12T16:50:25.672Z,12.00
2022-11-12T16:52:53.079Z,12.00
2022-11-12T16:55:20.853Z,12.00
2022-11-12T16:57:47.763Z,12.00
2022-11-12T17:00:17.644Z,11.90
2022-11-12T17:02:49.373Z,11.90
2022-11-12T17:05:22.032Z,11.90
2022-11-12T17:07:49.984Z,11.90
2022-11-12T17:10:17.290Z,11.90
2022-11-12T17:12:48.264Z,11.90
2022-11-12T17:15:15.946Z,11.90
2022-11-12T17:17:42.827Z,11.90
2022-11-12T17:20:10.179Z,11.80
2022-11-12T17:22:37.919Z,11.80
2022-11-12T17:25:07.291Z,11.80
2022-11-12T17:27:34.606Z,11.70
2022-11-12T17:30:02.438Z,11.70
2022-11-12T17:32:29.831Z,11.70
2022-11-12T17:34:56.964Z,11.70
2022-11-12T17:37:23.874Z,11.70
2022-11-12T17:39:51.076Z,11.70
2022-11-12T17:42:18.077Z,11.70
2022-11-12T17:44:46.313Z,11.60
2022-11-12T17:47:13.561Z,11.50
2022-11-12T17:49:40.986Z,11.50
2022-11-12T17:52:07.988Z,11.50
2022-11-12T17:54:35.807Z,11.40
2022-11-12T17:57:02.745Z,11.40
2022-11-12T17:59:29.577Z,11.40
2022-11-12T18:01:56.431Z,11.30
2022-11-12T18:04:23.940Z,11.30
2022-11-12T18:06:51.099Z,11.30
2022-11-12T18:09:18.073Z,11.20
2022-11-12T18:11:48.173Z,11.20
2022-11-12T18:14:16.047Z,11.20
2022-11-12T18:16:43.122Z,11.10
2022-11-12T18:19:11.578Z,11.00
2022-11-12T18:21:40.561Z,11.00
2022-11-12T18:24:17.085Z,10.90
2022-11-12T18:26:44.756Z,10.90
2022-11-12T18:29:12.772Z,10.90
2022-11-12T18:31:41.009Z,10.80
2022-11-12T18:34:13.624Z,10.80
2022-11-12T18:36:40.848Z,10.80
2022-11-12T18:39:07.966Z,10.80
2022-11-12T18:41:35.157Z,10.70
2022-11-12T18:44:02.453Z,10.70
2022-11-12T18:46:29.576Z,10.70
2022-11-12T18:48:57.349Z,10.70
2022-11-12T18:51:24.527Z,10.60
2022-11-12T18:53:51.795Z,10.60
2022-11-12T18:56:20.953Z,10.60
2022-11-12T18:58:48.455Z,10.60
2022-11-12T19:01:18.801Z,10.60
2022-11-12T19:03:46.085Z,10.60
2022-11-12T19:06:14.457Z,10.60
2022-11-12T19:08:41.914Z,10.60
2022-11-12T19:11:13.409Z,10.50
2022-11-12T19:13:41.072Z,10.50
2022-11-12T19:16:14.684Z,10.50
2022-11-12T19:18:43.510Z,10.50
2022-11-12T19:21:16.482Z,10.50
2022-11-12T19:23:43.993Z,10.40
2022-11-12T19:26:16.000Z,10.40
2022-11-12T19:28:44.315Z,10.40
2022-11-12T19:31:16.295Z,10.40
2022-11-12T19:33:43.868Z,10.40
2022-11-12T19:36:13.890Z,10.40
2022-11-12T19:38:41.012Z,10.40
2022-11-12T19:41:14.684Z,10.40
2022-11-12T19:43:45.067Z,10.40
2022-11-12T19:46:12.327Z,10.40
2022-11-12T19:48:39.326Z,10.40
2022-11-12T19:51:08.971Z,10.40
2022-11-12T19:53:42.074Z,10.40
2022-11-12T19:56:08.911Z,10.30
2022-11-12T19:58:35.984Z,10.30
2022-11-12T20:01:05.370Z,10.40
2022-11-12T20:03:32.584Z,10.30
2022-11-12T20:06:05.435Z,10.30
2022-11-12T20:08:33.135Z,10.30
2022-11-12T20:11:01.636Z,10.30
2022-11-12T20:13:29.117Z,10.30
2022-11-12T20:15:56.639Z,10.30
2022-11-12T20:18:24.198Z,10.20
2022-11-12T20:20:53.963Z,10.20
2022-11-12T20:23:21.488Z,10.20
2022-11-12T20:25:48.461Z,10.20
2022-11-12T20:28:15.297Z,10.20
2022-11-12T20:31:33.962Z,10.20
2022-11-12T20:34:02.415Z,10.10
2022-11-12T20:36:31.860Z,10.10
2022-11-12T20:38:59.524Z,10.10
2022-11-12T20:41:27.526Z,10.10
2022-11-12T20:43:59.325Z,10.10
2022-11-12T20:46:28.558Z,10.10
2022-11-12T20:48:55.542Z,10.10
2022-11-12T20:51:25.938Z,10.10
2022-11-12T20:53:58.772Z,10.00
2022-11-12T20:56:28.971Z,10.00
2022-11-12T20:58:56.694Z,10.00
2022-11-12T21:01:25.402Z,9.90
2022-11-12T21:03:52.597Z,9.80
2022-11-12T21:06:22.540Z,9.80
2022-11-12T21:08:50.271Z,9.70
2022-11-12T21:11:20.422Z,9.60
2022-11-12T21:13:47.381Z,9.50
2022-11-12T21:16:15.035Z,9.50
2022-11-12T21:18:42.431Z,9.40
2022-11-12T21:21:12.672Z,9.30
2022-11-12T21:23:43.850Z,9.30
2022-11-12T21:26:13.732Z,9.20
2022-11-12T21:28:45.551Z,9.20
2022-11-12T21:31:18.470Z,9.10
2022-11-12T21:33:48.551Z,9.10
2022-11-12T21:36:16.667Z,9.00
2022-11-12T21:38:44.376Z,8.90
2022-11-12T21:41:13.722Z,8.90
2022-11-12T21:43:43.373Z,8.80
2022-11-12T21:46:23.531Z,8.70
2022-11-12T21:48:55.197Z,8.70
2022-11-12T21:51:30.743Z,8.60
2022-11-12T21:53:59.758Z,8.50
2022-11-12T21:56:27.491Z,8.50
2022-11-12T21:59:04.597Z,8.50
2022-11-12T22:01:34.244Z,8.40
2022-11-12T22:04:04.779Z,8.40
2022-11-12T22:06:31.602Z,8.30
2022-11-12T22:08:58.808Z,8.30
2022-11-12T22:11:26.756Z,8.30
2022-11-12T22:13:53.594Z,8.20
2022-11-12T22:16:22.999Z,8.10
2022-11-12T22:18:52.212Z,8.10
2022-11-12T22:21:27.738Z,8.10
2022-11-12T22:23:56.244Z,8.00
2022-11-12T22:26:25.972Z,8.00
2022-11-12T22:28:54.275Z,8.00
2022-11-12T22:31:31.755Z,7.90
2022-11-12T22:34:00.819Z,7.80
2022-11-12T22:36:30.111Z,7.80
2022-11-12T22:38:57.580Z,7.70
2022-11-12T22:41:26.900Z,7.70
2022-11-12T22:43:58.192Z,7.60
2022-11-12T22:46:27.634Z,7.60
2022-11-12T22:48:55.178Z,7.50
2022-11-12T22:51:24.301Z,7.50
2022-11-12T22:54:00.450Z,7.40
2022-11-12T22:56:28.433Z,7.50
2022-11-12T22:58:55.834Z,7.40
2022-11-12T23:01:24.169Z,7.30
2022-11-12T23:03:51.923Z,7.30
2022-11-12T23:06:19.356Z,7.30
2022-11-12T23:08:46.514Z,7.30
2022-11-12T23:11:16.125Z,7.30
2022-11-12T23:13:44.029Z,7.30
2022-11-12T23:16:15.495Z,7.30
2022-11-12T23:18:42.741Z,7.20
2022-11-12T23:21:18.834Z,7.20
2022-11-12T23:23:45.633Z,7.20
2022-11-12T23:26:18.147Z,7.20
2022-11-12T23:28:45.360Z,7.10
2022-11-12T23:31:18.304Z,7.10
2022-11-12T23:33:50.504Z,7.00
2022-11-12T23:36:17.716Z,7.00
2022-11-12T23:38:44.594Z,6.90
2022-11-12T23:41:13.265Z,6.90
2022-11-12T23:43:40.198Z,6.90
2022-11-12T23:46:07.406Z,6.90
2022-11-12T23:48:34.379Z,7.00
2022-11-12T23:51:09.780Z,6.90
2022-11-12T23:53:37.742Z,6.90
2022-11-12T23:56:06.168Z,6.80
2022-11-12T23:58:33.326Z,6.80
